createdAt,value
2023-05-08T06:21:34.608Z,27.30
2023-05-08T06:26:30.664Z,38.70
2023-05-08T06:28:58.910Z,50.60
2023-05-08T06:31:27.467Z,43.30
2023-05-08T06:33:55.653Z,15.60
2023-05-08T06:36:24.161Z,9.30
2023-05-08T06:42:12.891Z,20.10
2023-05-08T06:44:41.299Z,14.10
2023-05-08T06:47:09.349Z,9.20
2023-05-08T06:49:37.584Z,10.10
2023-05-08T06:52:05.643Z,14.40
2023-05-08T06:54:33.808Z,10.80
2023-05-08T06:57:02.197Z,13.90
2023-05-08T06:59:30.353Z,8.00
2023-05-08T07:01:59.328Z,9.80
2023-05-08T07:04:29.557Z,15.70
2023-05-08T07:06:59.128Z,26.40
2023-05-08T07:09:27.244Z,25.70
2023-05-08T07:11:55.686Z,16.10
2023-05-08T07:14:23.930Z,6.70
2023-05-08T07:16:52.026Z,8.20
2023-05-08T07:19:22.363Z,8.90
2023-05-08T07:21:51.169Z,8.00
2023-05-08T07:24:19.288Z,6.90
2023-05-08T07:26:47.340Z,7.50
2023-05-08T07:29:15.459Z,9.40
2023-05-08T07:31:45.869Z,7.20
2023-05-08T07:34:14.308Z,8.20
2023-05-08T07:36:42.492Z,7.50
2023-05-08T07:39:10.991Z,8.30
2023-05-08T07:41:41.200Z,13.40
2023-05-08T07:44:09.570Z,7.10
2023-05-08T07:46:38.186Z,6.90
2023-05-08T07:49:06.469Z,5.50
2023-05-08T07:51:34.533Z,6.30
2023-05-08T07:54:04.787Z,8.80
2023-05-08T07:56:33.068Z,8.00
2023-05-08T07:59:01.762Z,8.90
2023-05-08T08:01:29.758Z,7.00
2023-05-08T08:03:57.851Z,9.50
2023-05-08T08:06:26.098Z,9.80
2023-05-08T08:08:54.255Z,7.90
2023-05-08T08:11:22.770Z,7.20
2023-05-08T08:13:50.818Z,9.60
2023-05-08T08:27:28.906Z,9.50
2023-05-08T08:30:12.204Z,8.50
2023-05-08T08:32:46.718Z,8.70
2023-05-08T08:37:44.526Z,9.40
2023-05-08T08:40:12.996Z,9.70
2023-05-08T08:42:41.950Z,17.00
2023-05-08T08:45:11.387Z,14.80
2023-05-08T08:47:41.847Z,12.10
2023-05-08T08:50:13.640Z,10.10
2023-05-08T08:53:14.689Z,24.30
2023-05-08T08:55:46.491Z,11.00
2023-05-08T08:58:26.811Z,12.30
2023-05-08T09:00:56.350Z,15.60
2023-05-08T09:03:24.915Z,11.90
2023-05-08T09:05:54.773Z,13.60
2023-05-08T09:08:23.690Z,12.50
2023-05-08T09:10:54.133Z,13.70
2023-05-08T09:13:22.982Z,16.10
2023-05-08T09:15:51.497Z,13.10
2023-05-08T09:18:19.680Z,15.00
2023-05-08T09:20:49.560Z,19.20
2023-05-08T09:23:18.468Z,13.50
2023-05-08T09:25:48.896Z,17.00
2023-05-08T09:28:18.316Z,11.30
2023-05-08T09:30:54.978Z,9.20
2023-05-08T09:33:28.057Z,11.70
2023-05-08T09:35:57.504Z,14.20
2023-05-08T09:38:40.806Z,9.40
2023-05-08T09:41:17.063Z,11.70
2023-05-08T09:44:01.462Z,13.00
2023-05-08T09:46:30.063Z,13.60
2023-05-08T09:51:29.753Z,16.20
2023-05-08T09:53:59.707Z,12.10
2023-05-08T09:56:39.583Z,10.70
2023-05-08T09:59:28.374Z,12.60
2023-05-08T10:05:23.034Z,13.00
2023-05-08T10:07:51.612Z,15.30
2023-05-08T10:14:51.330Z,8.50
